sensor_id;sensor_type;location;lat;lon;timestamp;temperature;humidity
69204;DHT22;56317;27.658;85.326;2023-02-13T00:00:51;5.50;99.90
69204;DHT22;56317;27.658;85.326;2023-02-13T00:03:18;5.50;99.90
69204;DHT22;56317;27.658;85.326;2023-02-13T00:05:45;5.60;99.90
69204;DHT22;56317;27.658;85.326;2023-02-13T00:08:13;5.60;99.90
69204;DHT22;56317;27.658;85.326;2023-02-13T00:10:40;5.50;99.90
69204;DHT22;56317;27.658;85.326;2023-02-13T00:13:07;5.60;99.90
69204;DHT22;56317;27.658;85.326;2023-02-13T00:15:34;5.60;99.90
69204;DHT22;56317;27.658;85.326;2023-02-13T00:18:02;5.60;99.90
69204;DHT22;56317;27.658;85.326;2023-02-13T00:20:29;5.60;99.90
69204;DHT22;56317;27.658;85.326;2023-02-13T00:22:58;5.50;99.90
69204;DHT22;56317;27.658;85.326;2023-02-13T00:25:25;5.50;99.90
69204;DHT22;56317;27.658;85.326;2023-02-13T00:27:52;5.40;99.90
69204;DHT22;56317;27.658;85.326;2023-02-13T00:30:20;5.40;99.90
69204;DHT22;56317;27.658;85.326;2023-02-13T00:32:48;5.40;99.90
69204;DHT22;56317;27.658;85.326;2023-02-13T00:35:15;5.30;99.90
69204;DHT22;56317;27.658;85.326;2023-02-13T00:37:42;5.30;99.90
69204;DHT22;56317;27.658;85.326;2023-02-13T00:40:10;5.30;99.90
69204;DHT22;56317;27.658;85.326;2023-02-13T00:42:38;5.30;99.90
69204;DHT22;56317;27.658;85.326;2023-02-13T00:45:05;5.30;99.90
69204;DHT22;56317;27.658;85.326;2023-02-13T00:47:32;5.20;99.90
69204;DHT22;56317;27.658;85.326;2023-02-13T00:50:00;5.20;99.90
69204;DHT22;56317;27.658;85.326;2023-02-13T00:52:27;5.20;99.90
69204;DHT22;56317;27.658;85.326;2023-02-13T00:54:54;5.20;99.90
69204;DHT22;56317;27.658;85.326;2023-02-13T00:57:21;5.20;99.90
69204;DHT22;56317;27.658;85.326;2023-02-13T00:59:48;5.30;99.90
69204;DHT22;56317;27.658;85.326;2023-02-13T01:02:16;5.30;99.90
69204;DHT22;56317;27.658;85.326;2023-02-13T01:04:43;5.30;99.90
69204;DHT22;56317;27.658;85.326;2023-02-13T01:07:10;5.30;99.90
69204;DHT22;56317;27.658;85.326;2023-02-13T01:09:37;5.30;99.90
69204;DHT22;56317;27.658;85.326;2023-02-13T01:12:04;5.40;99.90
69204;DHT22;56317;27.658;85.326;2023-02-13T01:14:32;5.50;99.90
69204;DHT22;56317;27.658;85.326;2023-02-13T01:16:59;5.60;99.90
69204;DHT22;56317;27.658;85.326;2023-02-13T01:19:26;5.60;99.90
69204;DHT22;56317;27.658;85.326;2023-02-13T01:21:53;5.60;99.90
69204;DHT22;56317;27.658;85.326;2023-02-13T01:24:21;5.70;99.90
69204;DHT22;56317;27.658;85.326;2023-02-13T01:26:48;5.70;99.90
69204;DHT22;56317;27.658;85.326;2023-02-13T01:29:15;5.80;99.90
69204;DHT22;56317;27.658;85.326;2023-02-13T01:31:42;5.90;99.90
69204;DHT22;56317;27.658;85.326;2023-02-13T01:34:09;5.90;99.90
69204;DHT22;56317;27.658;85.326;2023-02-13T01:36:37;6.10;99.90
69204;DHT22;56317;27.658;85.326;2023-02-13T01:39:04;6.20;99.90
69204;DHT22;56317;27.658;85.326;2023-02-13T01:41:32;6.30;99.90
69204;DHT22;56317;27.658;85.326;2023-02-13T01:44:00;6.50;99.90
69204;DHT22;56317;27.658;85.326;2023-02-13T01:46:40;6.60;99.90
69204;DHT22;56317;27.658;85.326;2023-02-13T01:49:19;6.70;99.90
69204;DHT22;56317;27.658;85.326;2023-02-13T01:51:49;6.90;99.90
69204;DHT22;56317;27.658;85.326;2023-02-13T01:54:27;7.00;99.90
69204;DHT22;56317;27.658;85.326;2023-02-13T01:57:10;7.10;99.90
69204;DHT22;56317;27.658;85.326;2023-02-13T01:59:57;7.30;99.90
69204;DHT22;56317;27.658;85.326;2023-02-13T02:02:25;7.50;99.90
69204;DHT22;56317;27.658;85.326;2023-02-13T02:04:53;7.60;99.90
69204;DHT22;56317;27.658;85.326;2023-02-13T02:07:26;7.90;99.90
69204;DHT22;56317;27.658;85.326;2023-02-13T02:10:01;8.10;99.90
69204;DHT22;56317;27.658;85.326;2023-02-13T02:15:16;8.40;99.90
69204;DHT22;56317;27.658;85.326;2023-02-13T02:17:43;8.60;99.90
69204;DHT22;56317;27.658;85.326;2023-02-13T02:20:34;8.80;99.90
69204;DHT22;56317;27.658;85.326;2023-02-13T02:34:53;9.80;99.90
69204;DHT22;56317;27.658;85.326;2023-02-13T02:37:43;10.10;99.90
69204;DHT22;56317;27.658;85.326;2023-02-13T02:43:03;10.60;99.90
69204;DHT22;56317;27.658;85.326;2023-02-13T02:45:53;10.80;99.90
69204;DHT22;56317;27.658;85.326;2023-02-13T02:48:32;10.90;99.90
69204;DHT22;56317;27.658;85.326;2023-02-13T02:54:11;11.40;99.90
69204;DHT22;56317;27.658;85.326;2023-02-13T02:57:03;11.50;99.90
69204;DHT22;56317;27.658;85.326;2023-02-13T02:59:32;11.70;99.90
69204;DHT22;56317;27.658;85.326;2023-02-13T03:02:18;11.90;99.90
69204;DHT22;56317;27.658;85.326;2023-02-13T03:05:07;12.00;99.90
69204;DHT22;56317;27.658;85.326;2023-02-13T03:08:00;12.30;99.90
69204;DHT22;56317;27.658;85.326;2023-02-13T03:10:31;12.60;99.10
69204;DHT22;56317;27.658;85.326;2023-02-13T03:13:35;12.80;98.90
69204;DHT22;56317;27.658;85.326;2023-02-13T03:16:05;13.20;98.60
69204;DHT22;56317;27.658;85.326;2023-02-13T03:18:56;13.40;98.10
69204;DHT22;56317;27.658;85.326;2023-02-13T03:27:29;13.90;95.40
69204;DHT22;56317;27.658;85.326;2023-02-13T03:30:49;14.30;95.20
69204;DHT22;56317;27.658;85.326;2023-02-13T03:36:59;15.10;93.70
69204;DHT22;56317;27.658;85.326;2023-02-13T03:40:08;15.50;91.90
69204;DHT22;56317;27.658;85.326;2023-02-13T03:45:31;15.80;87.50
69204;DHT22;56317;27.658;85.326;2023-02-13T03:48:25;15.70;86.50
69204;DHT22;56317;27.658;85.326;2023-02-13T03:51:18;15.90;89.70
69204;DHT22;56317;27.658;85.326;2023-02-13T03:53:51;16.10;87.80
69204;DHT22;56317;27.658;85.326;2023-02-13T03:56:21;16.30;86.60
69204;DHT22;56317;27.658;85.326;2023-02-13T03:59:11;16.60;82.90
69204;DHT22;56317;27.658;85.326;2023-02-13T04:01:53;16.90;84.60
69204;DHT22;56317;27.658;85.326;2023-02-13T04:04:33;17.40;81.60
69204;DHT22;56317;27.658;85.326;2023-02-13T04:07:14;17.80;80.50
69204;DHT22;56317;27.658;85.326;2023-02-13T04:10:04;18.10;78.20
69204;DHT22;56317;27.658;85.326;2023-02-13T04:12:47;18.50;74.90
69204;DHT22;56317;27.658;85.326;2023-02-13T04:17:53;19.30;74.00
69204;DHT22;56317;27.658;85.326;2023-02-13T04:20:20;19.70;72.20
69204;DHT22;56317;27.658;85.326;2023-02-13T04:22:48;20.10;69.70
69204;DHT22;56317;27.658;85.326;2023-02-13T04:25:16;20.30;65.60
69204;DHT22;56317;27.658;85.326;2023-02-13T04:27:45;20.30;66.30
69204;DHT22;56317;27.658;85.326;2023-02-13T04:30:13;20.50;66.10
69204;DHT22;56317;27.658;85.326;2023-02-13T04:32:40;21.10;64.60
69204;DHT22;56317;27.658;85.326;2023-02-13T04:35:07;21.90;61.90
69204;DHT22;56317;27.658;85.326;2023-02-13T04:37:37;22.90;60.30
69204;DHT22;56317;27.658;85.326;2023-02-13T04:40:04;23.90;57.50
69204;DHT22;56317;27.658;85.326;2023-02-13T04:42:32;24.60;53.70
69204;DHT22;56317;27.658;85.326;2023-02-13T04:44:59;25.00;53.70
69204;DHT22;56317;27.658;85.326;2023-02-13T04:47:26;25.60;51.50
69204;DHT22;56317;27.658;85.326;2023-02-13T04:49:53;25.70;50.50
69204;DHT22;56317;27.658;85.326;2023-02-13T04:52:21;25.70;49.70
69204;DHT22;56317;27.658;85.326;2023-02-13T04:54:48;26.10;49.30
69204;DHT22;56317;27.658;85.326;2023-02-13T04:57:15;26.50;48.60
69204;DHT22;56317;27.658;85.326;2023-02-13T04:59:43;27.10;48.70
69204;DHT22;56317;27.658;85.326;2023-02-13T05:02:10;27.90;47.30
69204;DHT22;56317;27.658;85.326;2023-02-13T05:04:37;28.60;45.80
69204;DHT22;56317;27.658;85.326;2023-02-13T05:07:05;29.10;46.00
69204;DHT22;56317;27.658;85.326;2023-02-13T05:09:32;29.60;44.20
69204;DHT22;56317;27.658;85.326;2023-02-13T05:11:59;30.00;42.90
69204;DHT22;56317;27.658;85.326;2023-02-13T05:14:27;30.30;42.60
69204;DHT22;56317;27.658;85.326;2023-02-13T05:16:54;30.70;41.50
69204;DHT22;56317;27.658;85.326;2023-02-13T05:19:22;31.00;41.70
69204;DHT22;56317;27.658;85.326;2023-02-13T05:21:49;31.20;40.90
69204;DHT22;56317;27.658;85.326;2023-02-13T05:24:34;31.50;40.80
69204;DHT22;56317;27.658;85.326;2023-02-13T05:27:01;32.10;40.30
69204;DHT22;56317;27.658;85.326;2023-02-13T05:29:29;32.80;39.20
69204;DHT22;56317;27.658;85.326;2023-02-13T05:31:57;33.00;39.10
69204;DHT22;56317;27.658;85.326;2023-02-13T05:34:26;33.50;38.80
69204;DHT22;56317;27.658;85.326;2023-02-13T05:36:55;33.80;38.10
69204;DHT22;56317;27.658;85.326;2023-02-13T05:39:22;33.40;38.00
69204;DHT22;56317;27.658;85.326;2023-02-13T05:41:49;33.30;37.90
69204;DHT22;56317;27.658;85.326;2023-02-13T05:44:17;33.70;37.50
69204;DHT22;56317;27.658;85.326;2023-02-13T05:46:45;34.10;36.70
69204;DHT22;56317;27.658;85.326;2023-02-13T05:49:14;34.40;36.80
69204;DHT22;56317;27.658;85.326;2023-02-13T05:51:42;35.00;36.40
69204;DHT22;56317;27.658;85.326;2023-02-13T06:04:49;35.00;35.90
69204;DHT22;56317;27.658;85.326;2023-02-13T06:07:18;37.50;34.40
69204;DHT22;56317;27.658;85.326;2023-02-13T06:09:46;37.80;33.80
69204;DHT22;56317;27.658;85.326;2023-02-13T06:12:13;38.30;33.00
69204;DHT22;56317;27.658;85.326;2023-02-13T06:14:40;38.40;32.50
69204;DHT22;56317;27.658;85.326;2023-02-13T06:17:08;38.80;31.10
69204;DHT22;56317;27.658;85.326;2023-02-13T06:19:35;38.70;30.30
69204;DHT22;56317;27.658;85.326;2023-02-13T06:22:02;38.50;30.40
69204;DHT22;56317;27.658;85.326;2023-02-13T06:24:29;38.60;29.90
69204;DHT22;56317;27.658;85.326;2023-02-13T06:26:57;38.80;29.70
69204;DHT22;56317;27.658;85.326;2023-02-13T06:29:24;38.70;29.60
69204;DHT22;56317;27.658;85.326;2023-02-13T06:31:51;38.70;30.20
69204;DHT22;56317;27.658;85.326;2023-02-13T06:34:19;38.60;30.10
69204;DHT22;56317;27.658;85.326;2023-02-13T06:36:46;39.00;30.30
69204;DHT22;56317;27.658;85.326;2023-02-13T06:39:13;39.50;30.00
69204;DHT22;56317;27.658;85.326;2023-02-13T06:41:41;40.20;29.70
69204;DHT22;56317;27.658;85.326;2023-02-13T06:44:08;40.50;29.40
69204;DHT22;56317;27.658;85.326;2023-02-13T06:46:35;40.00;29.20
69204;DHT22;56317;27.658;85.326;2023-02-13T06:49:03;39.60;29.60
69204;DHT22;56317;27.658;85.326;2023-02-13T06:51:30;40.00;29.10
69204;DHT22;56317;27.658;85.326;2023-02-13T06:53:57;40.60;29.30
69204;DHT22;56317;27.658;85.326;2023-02-13T06:56:25;40.70;29.10
69204;DHT22;56317;27.658;85.326;2023-02-13T06:58:55;41.10;28.70
69204;DHT22;56317;27.658;85.326;2023-02-13T07:01:23;41.10;28.70
69204;DHT22;56317;27.658;85.326;2023-02-13T07:03:50;41.10;28.90
69204;DHT22;56317;27.658;85.326;2023-02-13T07:06:18;41.50;28.70
69204;DHT22;56317;27.658;85.326;2023-02-13T07:08:46;41.90;28.70
69204;DHT22;56317;27.658;85.326;2023-02-13T07:11:20;42.30;28.90
69204;DHT22;56317;27.658;85.326;2023-02-13T07:13:48;42.30;28.70
69204;DHT22;56317;27.658;85.326;2023-02-13T07:16:15;42.60;28.90
69204;DHT22;56317;27.658;85.326;2023-02-13T07:18:43;42.70;28.20
69204;DHT22;56317;27.658;85.326;2023-02-13T07:21:10;42.60;28.30
69204;DHT22;56317;27.658;85.326;2023-02-13T07:23:37;42.80;28.00
69204;DHT22;56317;27.658;85.326;2023-02-13T07:26:05;43.20;27.60
69204;DHT22;56317;27.658;85.326;2023-02-13T07:28:33;42.70;27.60
69204;DHT22;56317;27.658;85.326;2023-02-13T07:31:03;43.00;27.80
69204;DHT22;56317;27.658;85.326;2023-02-13T07:33:32;43.40;27.60
69204;DHT22;56317;27.658;85.326;2023-02-13T07:35:59;43.70;27.30
69204;DHT22;56317;27.658;85.326;2023-02-13T07:38:29;44.20;27.30
69204;DHT22;56317;27.658;85.326;2023-02-13T07:41:01;44.00;27.20
69204;DHT22;56317;27.658;85.326;2023-02-13T07:43:30;44.40;27.50
69204;DHT22;56317;27.658;85.326;2023-02-13T07:46:01;43.70;27.40
69204;DHT22;56317;27.658;85.326;2023-02-13T07:48:29;43.10;27.90
69204;DHT22;56317;27.658;85.326;2023-02-13T07:51:01;43.10;27.50
69204;DHT22;56317;27.658;85.326;2023-02-13T07:53:29;42.90;27.90
69204;DHT22;56317;27.658;85.326;2023-02-13T07:55:56;42.10;27.80
69204;DHT22;56317;27.658;85.326;2023-02-13T07:58:23;41.40;28.30
69204;DHT22;56317;27.658;85.326;2023-02-13T08:00:51;42.10;28.40
69204;DHT22;56317;27.658;85.326;2023-02-13T08:03:18;42.90;28.00
69204;DHT22;56317;27.658;85.326;2023-02-13T08:05:46;42.50;27.60
69204;DHT22;56317;27.658;85.326;2023-02-13T08:08:15;41.90;28.10
69204;DHT22;56317;27.658;85.326;2023-02-13T08:10:42;41.80;27.80
69204;DHT22;56317;27.658;85.326;2023-02-13T08:13:28;41.00;28.30
69204;DHT22;56317;27.658;85.326;2023-02-13T08:15:55;40.70;28.80
69204;DHT22;56317;27.658;85.326;2023-02-13T08:18:22;40.50;28.50
69204;DHT22;56317;27.658;85.326;2023-02-13T08:20:50;39.70;28.90
69204;DHT22;56317;27.658;85.326;2023-02-13T08:23:17;39.60;29.10
69204;DHT22;56317;27.658;85.326;2023-02-13T08:25:44;38.90;29.30
69204;DHT22;56317;27.658;85.326;2023-02-13T08:28:13;38.30;29.60
69204;DHT22;56317;27.658;85.326;2023-02-13T08:30:40;38.00;29.80
69204;DHT22;56317;27.658;85.326;2023-02-13T08:33:08;37.90;30.00
69204;DHT22;56317;27.658;85.326;2023-02-13T08:35:35;37.40;30.00
69204;DHT22;56317;27.658;85.326;2023-02-13T08:38:03;36.50;30.20
69204;DHT22;56317;27.658;85.326;2023-02-13T08:40:31;35.70;30.60
69204;DHT22;56317;27.658;85.326;2023-02-13T08:43:05;35.20;30.90
69204;DHT22;56317;27.658;85.326;2023-02-13T08:45:36;35.00;31.20
69204;DHT22;56317;27.658;85.326;2023-02-13T08:48:04;34.60;31.40
69204;DHT22;56317;27.658;85.326;2023-02-13T08:50:34;35.00;31.60
69204;DHT22;56317;27.658;85.326;2023-02-13T08:53:04;35.00;31.10
69204;DHT22;56317;27.658;85.326;2023-02-13T08:55:33;35.10;31.20
69204;DHT22;56317;27.658;85.326;2023-02-13T08:58:04;34.90;31.10
69204;DHT22;56317;27.658;85.326;2023-02-13T09:00:36;34.70;31.40
69204;DHT22;56317;27.658;85.326;2023-02-13T09:03:06;34.10;31.10
69204;DHT22;56317;27.658;85.326;2023-02-13T09:05:34;33.70;31.70
69204;DHT22;56317;27.658;85.326;2023-02-13T09:08:02;33.70;31.40
69204;DHT22;56317;27.658;85.326;2023-02-13T09:10:32;33.40;31.50
69204;DHT22;56317;27.658;85.326;2023-02-13T09:13:09;33.50;31.40
69204;DHT22;56317;27.658;85.326;2023-02-13T09:15:41;32.80;31.60
69204;DHT22;56317;27.658;85.326;2023-02-13T09:18:18;32.60;31.70
69204;DHT22;56317;27.658;85.326;2023-02-13T09:20:48;32.20;32.00
69204;DHT22;56317;27.658;85.326;2023-02-13T09:23:17;31.30;32.50
69204;DHT22;56317;27.658;85.326;2023-02-13T09:25:49;30.60;33.30
69204;DHT22;56317;27.658;85.326;2023-02-13T09:28:24;30.10;33.70
69204;DHT22;56317;27.658;85.326;2023-02-13T09:30:52;30.30;33.50
69204;DHT22;56317;27.658;85.326;2023-02-13T09:33:20;30.60;33.60
69204;DHT22;56317;27.658;85.326;2023-02-13T09:35:49;30.80;33.00
69204;DHT22;56317;27.658;85.326;2023-02-13T09:38:17;30.80;33.00
69204;DHT22;56317;27.658;85.326;2023-02-13T09:45:59;29.70;34.00
69204;DHT22;56317;27.658;85.326;2023-02-13T09:48:33;29.70;34.00
69204;DHT22;56317;27.658;85.326;2023-02-13T09:51:03;29.20;34.30
69204;DHT22;56317;27.658;85.326;2023-02-13T09:53:31;29.00;34.80
69204;DHT22;56317;27.658;85.326;2023-02-13T09:56:15;28.90;34.70
69204;DHT22;56317;27.658;85.326;2023-02-13T09:59:16;28.60;35.40
69204;DHT22;56317;27.658;85.326;2023-02-13T10:01:43;28.90;35.00
69204;DHT22;56317;27.658;85.326;2023-02-13T10:07:25;29.00;35.10
69204;DHT22;56317;27.658;85.326;2023-02-13T10:16:11;28.10;36.20
69204;DHT22;56317;27.658;85.326;2023-02-13T10:18:52;28.00;36.80
69204;DHT22;56317;27.658;85.326;2023-02-13T10:21:23;27.40;36.60
69204;DHT22;56317;27.658;85.326;2023-02-13T10:24:17;26.90;37.20
69204;DHT22;56317;27.658;85.326;2023-02-13T10:26:48;27.10;37.30
69204;DHT22;56317;27.658;85.326;2023-02-13T10:29:44;27.00;37.40
69204;DHT22;56317;27.658;85.326;2023-02-13T10:32:42;26.00;38.50
69204;DHT22;56317;27.658;85.326;2023-02-13T10:35:29;25.80;38.40
69204;DHT22;56317;27.658;85.326;2023-02-13T10:37:58;25.60;38.90
69204;DHT22;56317;27.658;85.326;2023-02-13T10:40:35;24.90;39.30
69204;DHT22;56317;27.658;85.326;2023-02-13T10:43:09;24.90;40.10
69204;DHT22;56317;27.658;85.326;2023-02-13T10:46:02;25.20;39.90
69204;DHT22;56317;27.658;85.326;2023-02-13T10:48:46;24.90;39.90
69204;DHT22;56317;27.658;85.326;2023-02-13T10:56:53;23.50;42.30
69204;DHT22;56317;27.658;85.326;2023-02-13T11:02:20;23.30;43.10
69204;DHT22;56317;27.658;85.326;2023-02-13T11:05:32;22.90;43.50
69204;DHT22;56317;27.658;85.326;2023-02-13T11:07:39;22.10;45.00
69204;DHT22;56317;27.658;85.326;2023-02-13T11:10:19;21.80;46.10
69204;DHT22;56317;27.658;85.326;2023-02-13T11:12:48;21.10;47.10
69204;DHT22;56317;27.658;85.326;2023-02-13T11:15:30;19.90;48.50
69204;DHT22;56317;27.658;85.326;2023-02-13T11:18:02;18.90;50.70
69204;DHT22;56317;27.658;85.326;2023-02-13T11:20:40;18.10;52.50
69204;DHT22;56317;27.658;85.326;2023-02-13T11:23:31;17.60;53.60
69204;DHT22;56317;27.658;85.326;2023-02-13T11:28:53;16.70;56.40
69204;DHT22;56317;27.658;85.326;2023-02-13T11:31:29;16.30;57.80
69204;DHT22;56317;27.658;85.326;2023-02-13T11:33:58;16.00;58.10
69204;DHT22;56317;27.658;85.326;2023-02-13T11:36:30;15.80;59.60
69204;DHT22;56317;27.658;85.326;2023-02-13T11:39:06;15.60;60.20
69204;DHT22;56317;27.658;85.326;2023-02-13T11:41:41;15.40;61.20
69204;DHT22;56317;27.658;85.326;2023-02-13T11:46:49;14.90;62.70
69204;DHT22;56317;27.658;85.326;2023-02-13T11:49:28;14.80;63.20
69204;DHT22;56317;27.658;85.326;2023-02-13T11:52:00;14.70;64.60
69204;DHT22;56317;27.658;85.326;2023-02-13T11:54:43;14.50;64.70
69204;DHT22;56317;27.658;85.326;2023-02-13T11:59:52;14.30;66.10
69204;DHT22;56317;27.658;85.326;2023-02-13T12:02:31;14.10;66.90
69204;DHT22;56317;27.658;85.326;2023-02-13T12:05:23;14.00;67.20
69204;DHT22;56317;27.658;85.326;2023-02-13T12:07:56;13.90;66.80
69204;DHT22;56317;27.658;85.326;2023-02-13T12:10:26;13.80;67.30
69204;DHT22;56317;27.658;85.326;2023-02-13T12:13:06;13.70;67.20
69204;DHT22;56317;27.658;85.326;2023-02-13T12:15:39;13.60;68.80
69204;DHT22;56317;27.658;85.326;2023-02-13T12:21:03;13.50;68.90
69204;DHT22;56317;27.658;85.326;2023-02-13T12:26:59;13.30;69.90
69204;DHT22;56317;27.658;85.326;2023-02-13T12:29:52;13.20;71.40
69204;DHT22;56317;27.658;85.326;2023-02-13T12:32:46;13.10;71.20
69204;DHT22;56317;27.658;85.326;2023-02-13T12:35:35;13.00;71.50
69204;DHT22;56317;27.658;85.326;2023-02-13T12:44:09;12.80;73.40
69204;DHT22;56317;27.658;85.326;2023-02-13T12:47:04;12.70;73.80
69204;DHT22;56317;27.658;85.326;2023-02-13T13:09:40;12.20;88.30
69204;DHT22;56317;27.658;85.326;2023-02-13T13:12:45;12.20;90.50
69204;DHT22;56317;27.658;85.326;2023-02-13T13:16:00;12.10;91.50
69204;DHT22;56317;27.658;85.326;2023-02-13T13:21:27;12.10;94.50
69204;DHT22;56317;27.658;85.326;2023-02-13T13:23:59;12.10;95.40
69204;DHT22;56317;27.658;85.326;2023-02-13T13:26:35;12.00;96.10
69204;DHT22;56317;27.658;85.326;2023-02-13T13:29:20;12.00;96.70
69204;DHT22;56317;27.658;85.326;2023-02-13T13:32:05;11.90;97.10
69204;DHT22;56317;27.658;85.326;2023-02-13T13:34:35;11.90;97.90
69204;DHT22;56317;27.658;85.326;2023-02-13T13:37:42;11.80;98.40
69204;DHT22;56317;27.658;85.326;2023-02-13T13:40:33;11.80;99.50
69204;DHT22;56317;27.658;85.326;2023-02-13T13:43:04;11.80;99.80
69204;DHT22;56317;27.658;85.326;2023-02-13T13:50:47;11.80;99.90
69204;DHT22;56317;27.658;85.326;2023-02-13T13:53:20;11.70;99.90
69204;DHT22;56317;27.658;85.326;2023-02-13T13:58:38;11.60;99.90
69204;DHT22;56317;27.658;85.326;2023-02-13T14:01:28;11.60;99.90
69204;DHT22;56317;27.658;85.326;2023-02-13T14:07:13;11.60;99.90
69204;DHT22;56317;27.658;85.326;2023-02-13T14:11:55;11.60;99.90
69204;DHT22;56317;27.658;85.326;2023-02-13T14:17:03;11.50;99.90
69204;DHT22;56317;27.658;85.326;2023-02-13T14:19:49;11.50;99.90
69204;DHT22;56317;27.658;85.326;2023-02-13T14:22:52;11.50;99.90
69204;DHT22;56317;27.658;85.326;2023-02-13T14:25:24;11.50;99.90
69204;DHT22;56317;27.658;85.326;2023-02-13T14:27:57;11.60;99.90
69204;DHT22;56317;27.658;85.326;2023-02-13T14:30:31;11.50;99.90
69204;DHT22;56317;27.658;85.326;2023-02-13T14:33:02;11.50;99.90
69204;DHT22;56317;27.658;85.326;2023-02-13T14:35:36;11.50;99.90
69204;DHT22;56317;27.658;85.326;2023-02-13T14:38:22;11.50;99.90
69204;DHT22;56317;27.658;85.326;2023-02-13T14:40:51;11.50;99.90
69204;DHT22;56317;27.658;85.326;2023-02-13T14:43:29;11.40;99.90
69204;DHT22;56317;27.658;85.326;2023-02-13T14:49:04;11.40;99.90
69204;DHT22;56317;27.658;85.326;2023-02-13T14:51:40;11.40;99.90
69204;DHT22;56317;27.658;85.326;2023-02-13T14:54:46;11.40;99.90
69204;DHT22;56317;27.658;85.326;2023-02-13T15:00:44;11.20;99.90
69204;DHT22;56317;27.658;85.326;2023-02-13T15:03:47;11.20;99.90
69204;DHT22;56317;27.658;85.326;2023-02-13T15:06:44;11.10;99.90
69204;DHT22;56317;27.658;85.326;2023-02-13T15:09:21;11.10;99.90
69204;DHT22;56317;27.658;85.326;2023-02-13T15:11:50;11.10;99.90
69204;DHT22;56317;27.658;85.326;2023-02-13T15:14:19;11.00;99.90
69204;DHT22;56317;27.658;85.326;2023-02-13T15:17:26;11.00;99.90
69204;DHT22;56317;27.658;85.326;2023-02-13T15:19:48;11.00;99.90
69204;DHT22;56317;27.658;85.326;2023-02-13T15:22:31;11.00;99.90
69204;DHT22;56317;27.658;85.326;2023-02-13T15:24:59;11.00;99.90
69204;DHT22;56317;27.658;85.326;2023-02-13T15:27:29;11.00;99.90
69204;DHT22;56317;27.658;85.326;2023-02-13T15:32:33;11.00;99.90
69204;DHT22;56317;27.658;85.326;2023-02-13T15:35:26;11.00;99.90
69204;DHT22;56317;27.658;85.326;2023-02-13T15:37:54;10.90;99.90
69204;DHT22;56317;27.658;85.326;2023-02-13T15:40:29;10.90;99.90
69204;DHT22;56317;27.658;85.326;2023-02-13T15:42:57;10.90;99.90
69204;DHT22;56317;27.658;85.326;2023-02-13T15:45:26;10.80;99.90
69204;DHT22;56317;27.658;85.326;2023-02-13T15:47:54;10.80;99.90
69204;DHT22;56317;27.658;85.326;2023-02-13T15:50:35;10.80;99.90
69204;DHT22;56317;27.658;85.326;2023-02-13T15:53:04;10.80;99.90
69204;DHT22;56317;27.658;85.326;2023-02-13T15:55:35;10.70;99.90
69204;DHT22;56317;27.658;85.326;2023-02-13T15:58:04;10.70;99.90
69204;DHT22;56317;27.658;85.326;2023-02-13T16:00:36;10.60;99.90
69204;DHT22;56317;27.658;85.326;2023-02-13T16:03:07;10.60;99.90
69204;DHT22;56317;27.658;85.326;2023-02-13T16:05:40;10.60;99.90
69204;DHT22;56317;27.658;85.326;2023-02-13T16:16:51;10.50;99.90
69204;DHT22;56317;27.658;85.326;2023-02-13T16:21:50;10.50;99.90
69204;DHT22;56317;27.658;85.326;2023-02-13T16:24:19;10.40;99.90
69204;DHT22;56317;27.658;85.326;2023-02-13T16:26:47;10.40;99.90
69204;DHT22;56317;27.658;85.326;2023-02-13T16:29:21;10.40;99.90
69204;DHT22;56317;27.658;85.326;2023-02-13T16:31:49;10.40;99.90
69204;DHT22;56317;27.658;85.326;2023-02-13T16:34:24;10.30;99.90
69204;DHT22;56317;27.658;85.326;2023-02-13T16:36:52;10.30;99.90
69204;DHT22;56317;27.658;85.326;2023-02-13T16:39:31;10.30;99.90
69204;DHT22;56317;27.658;85.326;2023-02-13T16:42:00;10.30;99.90
69204;DHT22;56317;27.658;85.326;2023-02-13T16:44:31;10.30;99.90
69204;DHT22;56317;27.658;85.326;2023-02-13T16:46:59;10.20;99.90
69204;DHT22;56317;27.658;85.326;2023-02-13T16:49:34;10.20;99.90
69204;DHT22;56317;27.658;85.326;2023-02-13T16:52:18;10.10;99.90
69204;DHT22;56317;27.658;85.326;2023-02-13T16:57:22;10.10;99.90
69204;DHT22;56317;27.658;85.326;2023-02-13T16:59:57;10.00;99.90
69204;DHT22;56317;27.658;85.326;2023-02-13T17:02:27;10.00;99.90
69204;DHT22;56317;27.658;85.326;2023-02-13T17:10:06;9.80;99.90
69204;DHT22;56317;27.658;85.326;2023-02-13T17:12:38;9.70;99.90
69204;DHT22;56317;27.658;85.326;2023-02-13T17:15:09;9.60;99.90
69204;DHT22;56317;27.658;85.326;2023-02-13T17:17:38;9.60;99.90
69204;DHT22;56317;27.658;85.326;2023-02-13T17:20:06;9.60;99.90
69204;DHT22;56317;27.658;85.326;2023-02-13T17:22:39;9.50;99.90
69204;DHT22;56317;27.658;85.326;2023-02-13T17:25:30;9.50;99.90
69204;DHT22;56317;27.658;85.326;2023-02-13T17:27:59;9.40;99.90
69204;DHT22;56317;27.658;85.326;2023-02-13T17:30:31;9.40;99.90
69204;DHT22;56317;27.658;85.326;2023-02-13T17:33:02;9.50;99.90
69204;DHT22;56317;27.658;85.326;2023-02-13T17:35:30;9.60;99.90
69204;DHT22;56317;27.658;85.326;2023-02-13T17:37:58;9.50;99.90
69204;DHT22;56317;27.658;85.326;2023-02-13T17:40:26;9.50;99.90
69204;DHT22;56317;27.658;85.326;2023-02-13T17:42:56;9.50;99.90
69204;DHT22;56317;27.658;85.326;2023-02-13T17:45:27;9.50;99.90
69204;DHT22;56317;27.658;85.326;2023-02-13T17:47:55;9.50;99.90
69204;DHT22;56317;27.658;85.326;2023-02-13T17:50:26;9.50;99.90
69204;DHT22;56317;27.658;85.326;2023-02-13T17:52:54;9.50;99.90
69204;DHT22;56317;27.658;85.326;2023-02-13T17:55:24;9.50;99.90
69204;DHT22;56317;27.658;85.326;2023-02-13T17:57:53;9.50;99.90
69204;DHT22;56317;27.658;85.326;2023-02-13T18:00:22;9.50;99.90
69204;DHT22;56317;27.658;85.326;2023-02-13T18:02:50;9.40;99.90
69204;DHT22;56317;27.658;85.326;2023-02-13T18:05:19;9.40;99.90
69204;DHT22;56317;27.658;85.326;2023-02-13T18:07:47;9.30;99.90
69204;DHT22;56317;27.658;85.326;2023-02-13T18:10:17;9.10;99.90
69204;DHT22;56317;27.658;85.326;2023-02-13T18:12:45;9.10;99.90
69204;DHT22;56317;27.658;85.326;2023-02-13T18:15:13;8.90;99.90
69204;DHT22;56317;27.658;85.326;2023-02-13T18:17:40;8.80;99.90
69204;DHT22;56317;27.658;85.326;2023-02-13T18:20:13;8.70;99.90
69204;DHT22;56317;27.658;85.326;2023-02-13T18:22:41;8.70;99.90
69204;DHT22;56317;27.658;85.326;2023-02-13T18:25:09;8.60;99.90
69204;DHT22;56317;27.658;85.326;2023-02-13T18:27:37;8.50;99.90
69204;DHT22;56317;27.658;85.326;2023-02-13T18:30:05;8.40;99.90
69204;DHT22;56317;27.658;85.326;2023-02-13T18:32:33;8.40;99.90